Time;durP1;ratioP1;P1;durP2;ratioP2;P2;SDS_P1;SDS_P2;PMS_P1;PMS_P2;Temp;Humidity;BMP_temperature;BMP_pressure;BME280_temperature;BME280_humidity;BME280_pressure;Samples;Min_cycle;Max_cycle;Signal;HPM_P1;HPM_P2
2021/07/21 00:00:16;;;;;;;18.00;10.40;;;;;;;21.21;60.83;94931.63;4958736;28;20077;-79
2021/07/21 00:02:50;;;;;;;18.52;10.25;;;;;;;21.19;61.02;94931.94;4976128;28;20037;-81
2021/07/21 00:05:17;;;;;;;17.73;10.20;;;;;;;21.15;61.43;94938.09;4976268;28;20034;-79
2021/07/21 00:07:45;;;;;;;14.55;9.07;;;;;;;21.14;61.45;94933.88;4977240;28;20062;-79
2021/07/21 00:10:13;;;;;;;22.65;10.73;;;;;;;21.08;61.80;94932.41;4934838;28;20022;-77
2021/07/21 00:15:27;;;;;;;15.35;10.20;;;;;;;20.95;62.48;94934.75;4983711;28;20124;-79
2021/07/21 00:18:03;;;;;;;18.48;10.77;;;;;;;20.91;62.50;94939.06;4977941;28;20022;-79
2021/07/21 00:20:32;;;;;;;25.58;10.50;;;;;;;20.90;62.86;94942.78;4977728;28;20182;-79
2021/07/21 00:22:57;;;;;;;21.73;10.50;;;;;;;20.90;63.12;94942.78;4977672;28;20102;-79
2021/07/21 00:25:23;;;;;;;28.52;10.77;;;;;;;20.90;63.32;94942.78;4944925;28;20493;-79
2021/07/21 00:27:48;;;;;;;21.55;10.40;;;;;;;20.93;63.10;94939.56;4962963;28;20034;-77
2021/07/21 00:30:16;;;;;;;21.63;10.63;;;;;;;20.94;63.29;94933.19;4950982;28;20034;-77
2021/07/21 00:32:41;;;;;;;19.60;10.18;;;;;;;20.97;63.28;94942.41;4946783;28;20302;-78
2021/07/21 00:35:07;;;;;;;25.10;11.38;;;;;;;20.97;63.36;94935.25;4978146;28;20031;-79
2021/07/21 00:37:33;;;;;;;22.58;10.95;;;;;;;20.97;63.42;94935.25;4961029;28;20511;-79
2021/07/21 00:39:59;;;;;;;19.20;10.93;;;;;;;20.97;63.74;94935.25;4978159;28;20027;-79
2021/07/21 00:42:24;;;;;;;20.02;11.05;;;;;;;21.01;63.78;94934.69;4978454;28;20498;-79
2021/07/21 00:44:53;;;;;;;17.65;10.50;;;;;;;21.03;63.79;94935.94;4978694;28;20030;-79
2021/07/21 00:47:18;;;;;;;18.83;10.75;;;;;;;21.02;64.29;94934.38;4978932;28;20035;-79
2021/07/21 00:49:52;;;;;;;17.83;11.02;;;;;;;21.01;64.34;94932.03;4960168;28;20410;-78
2021/07/21 00:52:18;;;;;;;13.30;10.73;;;;;;;21.00;64.85;94925.97;4945517;28;20043;-78
2021/07/21 00:54:46;;;;;;;16.67;10.70;;;;;;;20.98;65.28;94928.09;4977860;28;20557;-78
2021/07/21 00:57:12;;;;;;;17.42;10.70;;;;;;;20.95;65.17;94929.47;4916032;23;20107;-78
2021/07/21 00:59:37;;;;;;;18.17;11.40;;;;;;;20.94;65.37;94932.41;4937980;29;20031;-78
2021/07/21 01:02:03;;;;;;;21.83;11.60;;;;;;;20.92;65.28;94940.63;4939322;29;20043;-78
2021/07/21 01:04:31;;;;;;;19.48;11.25;;;;;;;20.87;65.05;94935.47;4922448;29;20023;-78
2021/07/21 01:07:01;;;;;;;15.10;10.55;;;;;;;20.83;65.21;94931.84;4922464;29;20074;-78
2021/07/21 01:09:27;;;;;;;18.83;11.52;;;;;;;20.81;65.13;94933.97;4921775;29;20165;-81
2021/07/21 01:12:27;;;;;;;27.63;11.93;;;;;;;20.81;65.19;94930.53;4906341;29;20073;-78
2021/07/21 01:15:12;;;;;;;29.77;11.35;;;;;;;20.74;65.42;94936.22;4938036;29;20032;-78
2021/07/21 01:20:20;;;;;;;20.67;11.20;;;;;;;20.76;65.49;94936.72;4955128;28;20054;-78
2021/07/21 01:22:45;;;;;;;20.08;11.57;;;;;;;20.79;65.24;94936.13;4957929;28;20035;-78
2021/07/21 01:25:27;;;;;;;17.95;11.30;;;;;;;20.82;65.17;94932.88;4924654;29;20514;-78
2021/07/21 01:28:02;;;;;;;28.55;11.25;;;;;;;20.84;65.25;94933.41;4940795;29;20037;-81
2021/07/21 01:30:37;;;;;;;27.55;11.95;;;;;;;20.86;65.21;94933.09;4963658;23;20050;-79
2021/07/21 01:33:10;;;;;;;22.73;11.50;;;;;;;20.88;65.10;94929.09;4941610;29;20023;-79
2021/07/21 01:35:44;;;;;;;17.35;11.70;;;;;;;20.86;65.32;94935.75;4942657;28;20035;-79
2021/07/21 01:38:12;;;;;;;21.95;11.73;;;;;;;20.86;65.17;94936.53;4925428;29;20031;-79
2021/07/21 01:40:43;;;;;;;21.75;11.20;;;;;;;20.82;65.01;94940.81;4950585;23;20055;-79
2021/07/21 01:43:11;;;;;;;17.38;11.75;;;;;;;20.80;65.17;94932.41;4943847;28;20027;-79
2021/07/21 01:45:37;;;;;;;24.98;12.48;;;;;;;20.77;65.22;94933.00;4957405;28;20192;-79
2021/07/21 01:48:03;;;;;;;20.20;11.15;;;;;;;20.72;65.35;94930.44;4959175;28;20031;-79
2021/07/21 01:50:29;;;;;;;23.65;12.77;;;;;;;20.66;65.67;94931.59;4947782;28;20035;-78
2021/07/21 01:53:01;;;;;;;21.17;11.77;;;;;;;20.60;65.63;94932.78;4969302;28;20041;-77
2021/07/21 01:55:27;;;;;;;18.25;12.02;;;;;;;20.55;65.90;94927.59;4986846;28;20027;-78
2021/07/21 01:57:52;;;;;;;26.10;12.40;;;;;;;20.54;65.77;94929.44;4946142;28;20464;-79
2021/07/21 02:02:51;;;;;;;21.45;12.63;;;;;;;20.55;65.86;94930.22;5011211;23;20066;-79
2021/07/21 02:05:19;;;;;;;19.02;12.13;;;;;;;20.58;65.61;94927.00;4961945;28;20040;-79
2021/07/21 02:07:45;;;;;;;25.38;11.35;;;;;;;20.63;65.32;94932.97;4977309;28;20034;-79
2021/07/21 02:10:19;;;;;;;26.88;12.20;;;;;;;20.62;65.29;94933.28;4959382;28;20030;-78
2021/07/21 02:12:49;;;;;;;23.38;11.43;;;;;;;20.63;65.54;94940.91;4998133;28;20042;-77
2021/07/21 02:15:16;;;;;;;25.15;11.45;;;;;;;20.65;65.25;94945.88;5001856;23;20130;-77
2021/07/21 02:17:47;;;;;;;15.90;12.02;;;;;;;20.65;65.34;94940.59;4994550;23;20047;-77
2021/07/21 02:20:13;;;;;;;20.40;11.32;;;;;;;20.66;65.28;94948.25;4987620;28;20035;-77
2021/07/21 02:22:40;;;;;;;23.40;12.43;;;;;;;20.64;65.42;94944.31;4964742;28;20038;-79
2021/07/21 02:25:06;;;;;;;19.65;12.80;;;;;;;20.60;65.31;94943.34;4959153;28;20082;-79
2021/07/21 02:27:31;;;;;;;18.30;11.65;;;;;;;20.56;65.61;94951.06;4976397;28;20109;-79
2021/07/21 02:29:57;;;;;;;29.95;11.73;;;;;;;20.52;65.90;94941.38;4975914;28;20041;-78
2021/07/21 02:32:25;;;;;;;22.85;11.88;;;;;;;20.53;66.10;94946.38;4976394;28;20159;-79
2021/07/21 02:34:51;;;;;;;31.88;12.23;;;;;;;20.54;66.17;94949.81;4958530;28;20034;-79
2021/07/21 02:37:18;;;;;;;21.35;12.57;;;;;;;20.52;66.10;94949.31;4941474;28;20034;-78
2021/07/21 02:39:44;;;;;;;21.20;11.88;;;;;;;20.53;66.14;94948.25;4976911;28;20085;-78
2021/07/21 02:42:09;;;;;;;19.52;12.18;;;;;;;20.49;66.07;94942.72;4959331;28;20034;-78
2021/07/21 02:44:38;;;;;;;24.10;12.30;;;;;;;20.49;66.38;94947.22;4957359;28;20116;-79
2021/07/21 02:47:13;;;;;;;21.55;12.15;;;;;;;20.41;66.59;94945.25;4958483;28;20061;-79
2021/07/21 02:49:40;;;;;;;20.60;12.48;;;;;;;20.34;66.69;94949.03;4963547;23;20046;-79
2021/07/21 02:52:53;;;;;;;25.30;12.75;;;;;;;20.33;66.57;94950.09;4959427;28;20180;-79
2021/07/21 02:55:20;;;;;;;20.92;12.65;;;;;;;20.34;66.56;94962.25;4898052;29;20048;-79
2021/07/21 02:58:20;;;;;;;17.98;12.52;;;;;;;20.28;66.26;94959.97;4967261;28;20054;-79
2021/07/21 03:00:45;;;;;;;20.95;12.40;;;;;;;20.28;66.31;94967.88;4974470;28;20047;-79
2021/07/21 03:03:10;;;;;;;23.83;12.50;;;;;;;20.29;65.84;94962.31;4959231;28;20035;-78
2021/07/21 03:05:39;;;;;;;16.05;12.07;;;;;;;20.27;65.77;94961.03;4943786;28;20087;-79
2021/07/21 03:08:10;;;;;;;27.55;13.32;;;;;;;20.28;65.42;94963.38;4964093;23;20730;-79
2021/07/21 03:10:38;;;;;;;22.27;13.77;;;;;;;20.28;65.10;94958.09;4959465;28;20074;-79
2021/07/21 03:13:12;;;;;;;15.95;11.80;;;;;;;20.28;64.93;94968.66;4942748;28;20638;-79
2021/07/21 03:15:39;;;;;;;20.75;12.45;;;;;;;20.29;64.89;94972.88;4977144;28;20039;-79
2021/07/21 03:18:08;;;;;;;41.33;12.38;;;;;;;20.27;64.69;94972.38;4959365;28;20027;-79
2021/07/21 03:20:34;;;;;;;30.58;11.65;;;;;;;20.31;64.53;94972.59;4959046;28;20049;-79
2021/07/21 03:23:00;;;;;;;22.00;12.98;;;;;;;20.36;64.15;94975.94;4926299;28;20039;-79
2021/07/21 03:25:26;;;;;;;25.45;14.68;;;;;;;20.44;64.05;94976.38;4958037;28;20035;-79
2021/07/21 03:27:53;;;;;;;43.80;16.85;;;;;;;20.53;63.44;94980.72;4958964;28;20038;-79
2021/07/21 03:30:19;;;;;;;26.63;19.60;;;;;;;20.61;62.91;94982.69;4959492;28;20502;-79
2021/07/21 03:32:44;;;;;;;44.85;18.17;;;;;;;20.64;62.64;94989.25;4959066;28;20031;-78
2021/07/21 03:35:10;;;;;;;46.25;18.55;;;;;;;20.71;62.44;94997.59;4959507;28;20498;-79
2021/07/21 03:37:36;;;;;;;50.72;17.30;;;;;;;20.80;62.25;95000.34;4943343;28;20112;-80
2021/07/21 03:40:18;;;;;;;28.50;14.55;;;;;;;20.89;61.73;94999.38;4943031;28;20034;-80
2021/07/21 03:42:43;;;;;;;33.75;12.95;;;;;;;20.99;61.14;95001.06;4942142;28;20117;-80
2021/07/21 03:45:10;;;;;;;27.98;13.50;;;;;;;21.13;60.48;95011.63;4943091;28;20039;-80
2021/07/21 03:47:36;;;;;;;30.40;13.70;;;;;;;21.22;59.98;95012.53;4943187;28;20041;-79
2021/07/21 03:50:03;;;;;;;30.15;12.25;;;;;;;21.32;59.69;95007.09;4946607;28;20082;-80
2021/07/21 03:52:29;;;;;;;26.15;11.82;;;;;;;21.44;59.13;95010.00;4959819;23;20051;-79
2021/07/21 03:54:57;;;;;;;33.67;11.95;;;;;;;21.57;58.51;95009.22;4927888;29;20557;-79
2021/07/21 03:57:23;;;;;;;30.73;12.45;;;;;;;21.65;57.95;95009.63;4935128;29;20099;-78
2021/07/21 03:59:56;;;;;;;30.88;11.80;;;;;;;21.65;57.58;95020.97;4974724;29;20058;-78
2021/07/21 04:02:21;;;;;;;18.08;11.35;;;;;;;21.72;57.01;95015.28;4966748;28;20098;-79
2021/07/21 04:04:47;;;;;;;23.15;11.18;;;;;;;21.79;56.84;95019.06;4959762;29;20043;-79
2021/07/21 04:07:13;;;;;;;21.85;12.02;;;;;;;21.81;56.71;95016.94;4943968;29;20031;-79
2021/07/21 04:09:40;;;;;;;29.42;11.95;;;;;;;21.91;56.58;95020.44;4943881;29;20039;-79
2021/07/21 04:12:05;;;;;;;31.67;17.30;;;;;;;22.77;54.92;95023.75;4926425;29;20039;-79
2021/07/21 04:14:31;;;;;;;54.25;20.60;;;;;;;24.33;50.10;95022.44;4943050;29;20081;-79
2021/07/21 04:16:56;;;;;;;29.92;13.88;;;;;;;25.80;45.55;95031.91;4958194;28;20038;-79
2021/07/21 04:19:22;;;;;;;31.45;11.65;;;;;;;27.13;42.24;95029.09;4926749;29;20459;-79
2021/07/21 04:21:49;;;;;;;28.35;10.90;;;;;;;28.34;39.96;95027.53;4959506;28;20403;-79
2021/07/21 04:24:20;;;;;;;26.83;9.93;;;;;;;29.42;37.41;95020.38;4947476;23;20163;-79
2021/07/21 04:26:46;;;;;;;21.25;9.80;;;;;;;30.47;34.89;95029.28;4940441;29;20091;-79
2021/07/21 04:29:19;;;;;;;24.13;10.45;;;;;;;31.59;32.56;95030.94;4940664;29;20035;-79
2021/07/21 04:34:16;;;;;;;20.80;9.35;;;;;;;33.21;29.24;95029.97;5000700;23;20054;-79
2021/07/21 04:36:42;;;;;;;17.95;9.15;;;;;;;33.46;28.54;95030.19;4959129;28;20495;-79
2021/07/21 04:39:09;;;;;;;16.60;9.07;;;;;;;33.86;27.70;95021.28;4960324;29;20039;-79
2021/07/21 04:41:34;;;;;;;14.35;9.05;;;;;;;34.49;27.01;95030.88;4959595;28;20468;-80
2021/07/21 04:44:01;;;;;;;23.80;8.57;;;;;;;35.37;25.89;95031.53;4943141;29;20522;-78
2021/07/21 04:46:27;;;;;;;32.85;8.93;;;;;;;35.78;24.95;95019.16;4927295;29;20035;-79
2021/07/21 04:48:52;;;;;;;25.65;8.85;;;;;;;36.40;24.00;95027.97;4943207;29;20031;-79
2021/07/21 04:51:24;;;;;;;18.30;8.18;;;;;;;36.90;23.77;95031.25;4958169;28;20023;-79
2021/07/21 04:53:55;;;;;;;;;;;;;;;37.70;21.92;95027.59;4929124;29;20042;-79
2021/07/21 04:56:21;;;;;;;;;;;;;;;38.15;21.32;95028.38;4944821;29;19925;-79
2021/07/21 04:58:47;;;;;;;16.42;7.38;;;;;;;38.34;21.35;95032.47;4941066;29;19922;-79
2021/07/21 05:01:13;;;;;;;17.20;7.82;;;;;;;38.94;20.85;95033.69;4958438;28;20031;-79
2021/07/21 05:03:38;;;;;;;14.77;7.80;;;;;;;38.88;20.55;95032.59;4942344;29;20042;-79
2021/07/21 05:06:04;;;;;;;28.45;8.13;;;;;;;39.52;19.87;95037.13;4960538;28;20039;-79
2021/07/21 05:08:29;;;;;;;8.18;7.07;;;;;;;40.05;19.31;95040.97;4943048;29;20046;-80
2021/07/21 05:10:55;;;;;;;26.48;8.27;;;;;;;40.77;19.03;95038.41;4964760;23;20530;-80
2021/07/21 05:13:21;;;;;;;30.08;8.73;;;;;;;40.57;18.64;95034.94;4959729;29;20042;-80
2021/07/21 05:15:47;;;;;;;17.08;8.10;;;;;;;40.95;17.94;95049.72;4960602;28;20031;-79
2021/07/21 05:18:12;;;;;;;21.10;7.25;;;;;;;41.06;18.00;95033.91;4959116;29;20491;-80
2021/07/21 05:20:38;;;;;;;30.45;8.20;;;;;;;41.75;17.28;95038.59;4958916;28;20055;-80
2021/07/21 05:23:05;;;;;;;16.52;7.47;;;;;;;41.97;17.39;95040.34;4909917;29;20041;-82
2021/07/21 05:25:30;;;;;;;20.00;7.43;;;;;;;41.64;16.61;95049.75;4926034;28;20031;-80
2021/07/21 05:27:56;;;;;;;16.98;7.85;;;;;;;41.19;17.29;95035.97;4942333;29;20090;-79
2021/07/21 05:30:21;;;;;;;22.98;7.72;;;;;;;41.27;17.18;95043.59;4942221;29;20027;-80
2021/07/21 05:32:53;;;;;;;15.98;7.50;;;;;;;41.64;17.01;95039.59;4927504;29;20035;-80
2021/07/21 05:35:18;;;;;;;24.42;7.70;;;;;;;42.19;16.26;95045.28;4960246;29;20056;-80
2021/07/21 05:37:44;;;;;;;15.10;7.22;;;;;;;42.42;16.20;95047.00;4960039;28;20043;-80
2021/07/21 05:40:09;;;;;;;20.02;7.70;;;;;;;43.13;15.48;95034.06;4942934;29;20043;-80
2021/07/21 05:42:35;;;;;;;20.85;7.38;;;;;;;43.65;15.28;95033.59;4960010;28;20036;-80
2021/07/21 05:45:00;;;;;;;15.93;7.68;;;;;;;44.59;14.20;95041.00;4960768;29;20086;-79
2021/07/21 05:47:25;;;;;;;21.98;7.35;;;;;;;45.13;13.27;95034.28;4965345;28;20031;-79
2021/07/21 05:49:51;;;;;;;14.30;7.07;;;;;;;45.47;13.24;95036.13;4963729;29;20027;-79
2021/07/21 05:52:17;;;;;;;38.05;8.07;;;;;;;45.42;12.91;95038.72;4982484;23;20058;-80
2021/07/21 05:54:42;;;;;;;20.80;7.63;;;;;;;45.07;13.48;95040.81;4965786;23;20055;-80
2021/07/21 05:57:08;;;;;;;12.90;6.97;;;;;;;44.98;13.08;95049.78;4959697;28;20479;-80
2021/07/21 05:59:36;;;;;;;14.10;6.95;;;;;;;45.60;12.79;95049.75;4959834;29;20031;-80
2021/07/21 06:02:02;;;;;;;16.58;7.82;;;;;;;46.13;12.51;95052.31;4959966;28;20035;-80
2021/07/21 06:04:28;;;;;;;19.38;7.85;;;;;;;46.88;12.29;95044.31;4964412;29;20054;-80
2021/07/21 06:06:53;;;;;;;12.07;6.95;;;;;;;47.01;11.72;95051.59;4973463;23;20043;-80
2021/07/21 06:09:18;;;;;;;13.18;6.45;;;;;;;46.72;11.94;95049.38;4973418;23;20547;-80
2021/07/21 06:11:44;;;;;;;17.65;7.57;;;;;;;46.35;11.84;95047.41;4945953;29;20495;-79
2021/07/21 06:14:10;;;;;;;28.48;7.32;;;;;;;46.14;12.36;95048.31;4958753;29;20514;-80
2021/07/21 06:16:36;;;;;;;16.15;6.60;;;;;;;46.37;12.44;95055.94;4959678;28;20038;-81
2021/07/21 06:19:02;;;;;;;14.68;7.18;;;;;;;46.74;12.06;95053.19;4958901;29;20027;-80
2021/07/21 06:21:27;;;;;;;16.30;6.90;;;;;;;46.21;11.97;95059.00;4925514;29;20035;-80
2021/07/21 06:23:53;;;;;;;10.85;6.90;;;;;;;45.71;12.52;95061.06;4959358;29;20031;-81
2021/07/21 06:26:21;;;;;;;21.83;7.05;;;;;;;45.44;12.62;95058.25;4940865;28;20051;-80
2021/07/21 06:28:59;;;;;;;8.20;6.53;;;;;;;44.56;12.58;95069.31;4958782;29;20047;-80
2021/07/21 06:31:24;;;;;;;15.63;8.13;;;;;;;43.75;13.36;95061.88;4955592;28;20031;-78
2021/07/21 06:33:50;;;;;;;19.63;8.18;;;;;;;43.76;13.50;95063.41;4971992;23;20423;-81
2021/07/21 06:36:15;;;;;;;21.65;7.97;;;;;;;43.56;13.66;95054.66;4957348;28;20489;-81
2021/07/21 06:38:41;;;;;;;20.90;7.10;;;;;;;42.66;14.34;95055.75;4957635;29;20039;-80
2021/07/21 06:41:06;;;;;;;17.67;7.22;;;;;;;42.25;14.73;95065.44;4956320;28;20447;-80
2021/07/21 06:43:34;;;;;;;13.60;7.47;;;;;;;42.55;14.01;95072.47;4957874;29;20423;-80
2021/07/21 06:46:00;;;;;;;24.92;8.50;;;;;;;42.41;14.07;95056.41;4958867;28;20173;-81
2021/07/21 06:48:25;;;;;;;17.23;7.43;;;;;;;42.06;14.28;95053.41;4957156;29;20054;-80
2021/07/21 06:50:51;;;;;;;18.65;7.07;;;;;;;42.35;14.20;95064.38;4958721;28;20487;-81
2021/07/21 06:53:17;;;;;;;10.02;7.18;;;;;;;42.73;13.97;95067.25;4957924;29;20035;-78
2021/07/21 06:55:42;;;;;;;16.40;7.80;;;;;;;42.43;13.59;95059.47;4941268;28;20443;-81
2021/07/21 06:58:08;;;;;;;23.38;8.10;;;;;;;41.96;14.32;95065.38;4925772;29;20061;-79
2021/07/21 07:00:33;;;;;;;12.48;7.75;;;;;;;41.00;14.86;95064.81;4909135;28;20542;-80
2021/07/21 07:03:05;;;;;;;19.35;8.25;;;;;;;40.20;15.75;95062.09;4925053;29;20345;-81
2021/07/21 07:05:33;;;;;;;16.02;8.25;;;;;;;39.29;16.34;95062.34;4955331;28;20028;-81
2021/07/21 07:07:58;;;;;;;14.43;8.20;;;;;;;38.70;17.18;95065.44;4938131;23;20062;-81
2021/07/21 07:10:24;;;;;;;15.57;7.90;;;;;;;37.74;17.71;95050.06;4977466;28;20462;-81
2021/07/21 07:12:49;;;;;;;12.43;8.50;;;;;;;37.19;18.94;95057.03;4977630;28;20466;-80
2021/07/21 07:15:21;;;;;;;16.48;8.90;;;;;;;36.41;19.08;95051.16;4973821;28;20034;-81
2021/07/21 07:17:47;;;;;;;12.45;8.25;;;;;;;35.84;19.60;95062.88;4976788;28;20571;-80
2021/07/21 07:20:12;;;;;;;15.45;9.07;;;;;;;35.35;20.00;95052.75;4976390;28;20034;-80
2021/07/21 07:22:44;;;;;;;9.95;8.00;;;;;;;34.65;21.39;95062.19;4976854;28;20446;-80
2021/07/21 07:25:12;;;;;;;;;;;;;;;34.31;22.21;95057.00;4984038;28;20478;-79
2021/07/21 07:27:38;;;;;;;15.77;9.48;;;;;;;33.30;23.03;95051.97;4970894;28;19924;-78
2021/07/21 07:30:04;;;;;;;24.08;8.88;;;;;;;32.92;22.94;95046.97;4996664;28;20031;-79
2021/07/21 07:32:30;;;;;;;18.30;9.20;;;;;;;32.25;23.87;95056.53;4991021;28;20035;-80
2021/07/21 07:35:01;;;;;;;26.35;9.93;;;;;;;32.10;24.62;95054.78;4982553;28;20045;-80
2021/07/21 07:37:33;;;;;;;15.45;9.27;;;;;;;31.44;24.88;95045.28;4983839;28;20030;-79
2021/07/21 07:39:58;;;;;;;16.67;8.95;;;;;;;30.86;25.36;95058.81;4983000;28;20561;-78
2021/07/21 07:42:24;;;;;;;15.25;9.00;;;;;;;30.80;26.43;95059.47;4983084;28;20035;-79
2021/07/21 07:44:49;;;;;;;17.20;9.23;;;;;;;30.73;26.23;95055.50;4982676;28;20124;-79
2021/07/21 07:47:15;;;;;;;16.60;9.13;;;;;;;30.46;26.43;95064.53;4949712;28;20487;-79
2021/07/21 07:49:40;;;;;;;13.73;9.95;;;;;;;30.09;26.77;95061.41;4950384;28;20039;-81
2021/07/21 07:52:06;;;;;;;18.52;9.40;;;;;;;29.91;27.58;95063.69;4969119;23;20058;-81
2021/07/21 07:54:31;;;;;;;13.88;8.45;;;;;;;29.77;27.26;95053.41;4965966;28;20038;-81
2021/07/21 07:56:57;;;;;;;24.30;9.70;;;;;;;29.62;28.12;95056.13;4983093;28;20035;-81
2021/07/21 07:59:22;;;;;;;20.38;11.05;;;;;;;29.62;28.25;95056.91;4966580;28;20046;-81
2021/07/21 08:01:48;;;;;;;18.25;10.27;;;;;;;29.41;28.31;95061.69;4934445;28;20039;-80
2021/07/21 08:04:13;;;;;;;16.63;10.73;;;;;;;29.40;29.11;95052.09;4950665;28;20174;-80
2021/07/21 08:06:39;;;;;;;16.27;10.88;;;;;;;29.36;28.73;95053.94;4966784;28;20487;-81
2021/07/21 08:09:12;;;;;;;20.83;9.68;;;;;;;29.32;27.98;95048.50;4983444;28;20062;-80
2021/07/21 08:11:39;;;;;;;15.38;9.90;;;;;;;29.18;28.45;95045.44;4983534;28;20070;-81
2021/07/21 08:14:05;;;;;;;21.92;10.02;;;;;;;28.93;28.39;95050.16;4964076;28;20086;-80
2021/07/21 08:16:30;;;;;;;26.75;9.25;;;;;;;28.77;28.54;95027.88;4983274;28;20418;-81
2021/07/21 08:18:55;;;;;;;16.50;9.77;;;;;;;28.55;29.43;95053.31;4982778;28;20058;-80
2021/07/21 08:21:21;;;;;;;16.45;8.77;;;;;;;28.46;28.36;95048.06;4982933;28;20438;-81
2021/07/21 08:23:46;;;;;;;24.05;9.43;;;;;;;28.27;28.35;95058.63;4982487;28;20491;-80
2021/07/21 08:26:24;;;;;;;14.40;9.07;;;;;;;28.03;28.84;95064.78;4966084;28;20035;-80
2021/07/21 08:28:50;;;;;;;13.90;9.35;;;;;;;27.80;29.16;95061.75;4966036;28;20034;-81
2021/07/21 08:31:16;;;;;;;20.15;9.10;;;;;;;27.64;29.67;95068.88;4949310;28;20030;-80
2021/07/21 08:33:43;;;;;;;13.68;9.13;;;;;;;27.57;29.80;95053.41;4983185;28;20062;-80
2021/07/21 08:36:09;;;;;;;18.35;9.05;;;;;;;27.50;29.95;95059.31;4930631;28;20041;-80
2021/07/21 08:38:34;;;;;;;22.23;9.65;;;;;;;27.34;30.77;95065.63;4978523;28;20442;-80
2021/07/21 08:41:00;;;;;;;13.80;9.40;;;;;;;27.29;31.12;95074.63;4980223;28;20077;-80
2021/07/21 08:43:26;;;;;;;23.02;9.57;;;;;;;27.15;31.15;95058.13;4947102;28;20031;-80
2021/07/21 08:45:52;;;;;;;31.00;9.80;;;;;;;27.15;31.13;95068.78;4947178;28;20045;-80
2021/07/21 08:48:18;;;;;;;21.30;9.43;;;;;;;27.13;31.54;95068.34;4962472;28;20026;-80
2021/07/21 08:50:44;;;;;;;14.60;9.50;;;;;;;27.15;32.36;95063.47;4979955;28;20034;-80
2021/07/21 08:53:10;;;;;;;22.13;8.95;;;;;;;27.20;31.17;95066.72;4930534;28;20477;-79
2021/07/21 08:55:35;;;;;;;17.77;8.93;;;;;;;27.07;30.15;95067.00;4979693;28;20027;-80
2021/07/21 08:58:01;;;;;;;12.20;9.40;;;;;;;27.10;31.14;95061.00;4946289;28;20033;-80
2021/07/21 09:00:26;;;;;;;21.33;9.57;;;;;;;27.07;31.93;95056.34;4945112;28;20088;-81
2021/07/21 09:02:52;;;;;;;22.15;9.15;;;;;;;27.07;32.60;95064.34;4945644;28;20026;-80
2021/07/21 09:05:17;;;;;;;21.02;9.15;;;;;;;26.93;31.18;95052.03;4942195;28;20490;-80
2021/07/21 09:07:43;;;;;;;17.88;9.30;;;;;;;26.75;31.05;95055.22;4978453;28;20035;-80
2021/07/21 09:10:13;;;;;;;13.95;8.52;;;;;;;26.46;31.59;95054.19;4961505;28;20035;-80
2021/07/21 09:12:39;;;;;;;22.45;9.13;;;;;;;26.37;32.52;95055.38;4945779;28;20030;-80
2021/07/21 09:15:07;;;;;;;22.38;8.88;;;;;;;26.25;32.33;95048.84;4946036;28;20113;-80
2021/07/21 09:17:32;;;;;;;23.60;9.73;;;;;;;26.19;32.94;95058.13;4979574;28;20042;-80
2021/07/21 09:19:57;;;;;;;21.60;9.32;;;;;;;26.19;33.04;95047.47;4961685;28;20023;-80
2021/07/21 09:22:29;;;;;;;14.40;9.85;;;;;;;26.16;32.62;95056.09;4978393;28;20031;-80
2021/07/21 09:25:13;;;;;;;18.08;9.50;;;;;;;26.11;33.05;95058.19;4961335;28;20101;-80
2021/07/21 09:27:39;;;;;;;15.57;9.75;;;;;;;26.02;34.20;95032.38;4976581;28;20035;-79
2021/07/21 09:30:06;;;;;;;26.30;10.18;;;;;;;26.08;33.03;95054.28;4978984;28;20050;-80
2021/07/21 09:32:31;;;;;;;23.85;11.02;;;;;;;26.15;33.25;95043.88;4978518;28;20038;-80
2021/07/21 09:34:57;;;;;;;17.77;10.23;;;;;;;26.19;32.03;95042.13;4945771;28;20388;-80
2021/07/21 09:37:22;;;;;;;12.25;9.32;;;;;;;26.06;32.78;95051.19;4961069;28;20030;-80
2021/07/21 09:39:50;;;;;;;17.08;9.38;;;;;;;26.09;32.72;95050.53;4944522;28;20039;-80
2021/07/21 09:42:17;;;;;;;18.00;10.00;;;;;;;26.05;32.80;95038.97;4961188;28;20027;-80
2021/07/21 09:44:44;;;;;;;30.88;10.70;;;;;;;26.13;33.39;95050.66;4944785;28;20494;-79
2021/07/21 09:47:17;;;;;;;13.40;8.75;;;;;;;26.08;32.83;95037.53;4960793;28;20030;-80
2021/07/21 09:49:43;;;;;;;15.80;10.45;;;;;;;26.06;33.80;95045.84;4961372;28;20430;-80
2021/07/21 09:52:21;;;;;;;16.63;9.55;;;;;;;26.17;34.87;95047.00;4944885;28;20035;-80
2021/07/21 09:55:10;;;;;;;24.88;10.32;;;;;;;26.25;32.92;95038.19;4961316;28;20034;-80
2021/07/21 09:57:35;;;;;;;17.63;9.07;;;;;;;26.16;33.15;95034.00;4977944;28;20031;-80
2021/07/21 10:00:21;;;;;;;15.40;9.85;;;;;;;26.09;32.24;95015.88;4945090;28;20043;-80
2021/07/21 10:02:50;;;;;;;12.32;8.50;;;;;;;26.03;32.89;95033.16;4960447;28;20062;-80
2021/07/21 10:05:15;;;;;;;17.00;9.70;;;;;;;26.03;34.11;95030.47;4960393;28;20030;-80
2021/07/21 10:10:15;;;;;;;21.00;9.85;;;;;;;26.32;33.62;95033.09;4961291;28;20050;-80
2021/07/21 10:12:40;;;;;;;25.17;10.40;;;;;;;26.36;33.27;95033.28;4929670;28;20027;-80
2021/07/21 10:15:06;;;;;;;15.75;9.55;;;;;;;26.29;33.23;95028.41;4977880;28;20042;-80
2021/07/21 10:17:32;;;;;;;11.10;9.27;;;;;;;26.27;33.25;95030.63;4960469;28;20545;-79
2021/07/21 10:19:57;;;;;;;18.10;11.10;;;;;;;26.20;33.21;95027.72;4961938;28;20086;-81
2021/07/21 10:22:23;;;;;;;15.38;10.25;;;;;;;26.07;33.48;95026.09;4960819;28;20026;-80
2021/07/21 10:24:49;;;;;;;27.70;10.40;;;;;;;25.87;33.65;95029.50;4977703;28;20482;-80
2021/07/21 10:27:17;;;;;;;15.73;10.40;;;;;;;25.81;33.80;95030.78;4977682;28;20031;-80
2021/07/21 10:29:43;;;;;;;21.80;11.02;;;;;;;25.76;34.61;95025.66;4979643;28;20173;-79
2021/07/21 10:32:10;;;;;;;18.38;11.43;;;;;;;25.84;35.34;95027.47;4977002;28;20031;-80
2021/07/21 10:34:42;;;;;;;30.10;10.70;;;;;;;25.96;34.40;95024.91;4978967;28;20031;-80
2021/07/21 10:37:08;;;;;;;18.55;10.30;;;;;;;25.90;34.34;95013.66;4961005;28;20165;-80
2021/07/21 10:39:34;;;;;;;19.25;10.40;;;;;;;25.82;33.74;95029.69;4977733;28;20070;-79
2021/07/21 10:42:10;;;;;;;22.88;10.60;;;;;;;25.80;33.50;95023.91;4960407;28;20061;-80
2021/07/21 10:44:36;;;;;;;15.60;9.90;;;;;;;25.77;32.08;95014.69;4977648;28;20054;-80
2021/07/21 10:47:02;;;;;;;17.60;9.48;;;;;;;25.61;32.61;95017.09;4975716;28;20042;-80
2021/07/21 11:00:10;;;;;;;21.60;9.15;;;;;;;25.33;32.10;95029.28;4962004;28;20090;-80
2021/07/21 11:02:39;;;;;;;17.80;9.85;;;;;;;25.28;32.89;95010.81;4930680;28;20043;-78
2021/07/21 11:05:05;;;;;;;15.57;9.57;;;;;;;25.25;33.54;95001.59;4977694;23;20043;-79
2021/07/21 11:07:53;;;;;;;15.43;9.35;;;;;;;25.16;33.33;94992.09;4976829;28;20030;-80
2021/07/21 11:10:34;;;;;;;17.60;9.70;;;;;;;25.26;32.88;95005.81;4957795;29;20062;-80
2021/07/21 11:13:01;;;;;;;17.75;9.40;;;;;;;25.21;32.50;95013.97;4941320;29;20043;-80
2021/07/21 11:15:35;;;;;;;15.32;9.40;;;;;;;25.13;33.14;95012.13;4941344;29;20058;-79
2021/07/21 11:18:22;;;;;;;20.63;9.48;;;;;;;24.93;32.39;95010.91;4958768;29;20110;-79
2021/07/21 11:21:20;;;;;;;13.98;8.55;;;;;;;24.91;32.73;95007.03;4957502;28;20046;-80
2021/07/21 11:23:52;;;;;;;17.65;8.98;;;;;;;24.84;33.48;95012.81;4904939;29;20036;-80
2021/07/21 11:26:34;;;;;;;23.25;10.18;;;;;;;24.87;33.18;94985.56;4957098;28;20495;-79
2021/07/21 11:29:19;;;;;;;18.10;9.10;;;;;;;24.85;33.30;94999.19;4956967;29;20610;-80
2021/07/21 11:31:53;;;;;;;15.88;9.70;;;;;;;24.82;32.81;95004.38;4957323;28;20035;-79
2021/07/21 11:34:40;;;;;;;35.90;9.98;;;;;;;24.72;32.69;95000.16;4957006;29;20035;-79
2021/07/21 11:37:09;;;;;;;18.30;9.52;;;;;;;24.65;32.96;95007.84;4956973;28;20116;-79
2021/07/21 11:39:41;;;;;;;14.40;9.07;;;;;;;24.67;33.27;95000.34;4924190;29;20042;-79
2021/07/21 11:45:04;;;;;;;15.27;9.75;;;;;;;24.73;33.11;95000.94;4944099;29;20521;-79
2021/07/21 11:47:31;;;;;;;16.63;9.90;;;;;;;24.71;33.35;94992.50;4940140;29;20038;-79
2021/07/21 11:49:57;;;;;;;14.88;9.00;;;;;;;24.76;32.96;95021.59;4924005;29;20028;-79
2021/07/21 11:52:23;;;;;;;18.88;9.38;;;;;;;24.77;32.08;95020.50;4939563;29;20034;-79